sensor_id;sensor_type;location;lat;lon;timestamp;temperature;humidity
3202;DHT22;34843;48.744;8.958;2023-08-30T00:01:06;13.10;99.90
3202;DHT22;34843;48.744;8.958;2023-08-30T00:03:33;13.00;99.90
3202;DHT22;34843;48.744;8.958;2023-08-30T00:06:03;13.00;99.90
3202;DHT22;34843;48.744;8.958;2023-08-30T00:08:30;13.10;99.90
3202;DHT22;34843;48.744;8.958;2023-08-30T00:10:56;13.10;99.90
3202;DHT22;34843;48.744;8.958;2023-08-30T00:13:28;13.10;99.90
3202;DHT22;34843;48.744;8.958;2023-08-30T00:15:55;13.00;99.90
3202;DHT22;34843;48.744;8.958;2023-08-30T00:18:20;13.00;99.90
3202;DHT22;34843;48.744;8.958;2023-08-30T00:20:46;13.00;99.90
3202;DHT22;34843;48.744;8.958;2023-08-30T00:23:11;13.00;99.90
3202;DHT22;34843;48.744;8.958;2023-08-30T00:25:37;12.90;99.90
3202;DHT22;34843;48.744;8.958;2023-08-30T00:28:03;12.80;99.90
3202;DHT22;34843;48.744;8.958;2023-08-30T00:30:28;12.80;99.90
3202;DHT22;34843;48.744;8.958;2023-08-30T00:32:54;12.80;99.90
3202;DHT22;34843;48.744;8.958;2023-08-30T00:35:19;12.90;99.90
3202;DHT22;34843;48.744;8.958;2023-08-30T00:37:45;12.90;99.90
3202;DHT22;34843;48.744;8.958;2023-08-30T00:40:10;12.90;99.90
3202;DHT22;34843;48.744;8.958;2023-08-30T00:42:36;12.80;99.90
3202;DHT22;34843;48.744;8.958;2023-08-30T00:45:03;12.80;99.90
3202;DHT22;34843;48.744;8.958;2023-08-30T00:47:28;12.80;99.90
3202;DHT22;34843;48.744;8.958;2023-08-30T00:49:54;12.70;99.90
3202;DHT22;34843;48.744;8.958;2023-08-30T00:52:19;12.70;99.90
3202;DHT22;34843;48.744;8.958;2023-08-30T00:54:45;12.70;99.90
3202;DHT22;34843;48.744;8.958;2023-08-30T00:57:11;12.60;99.90
3202;DHT22;34843;48.744;8.958;2023-08-30T00:59:37;12.60;99.90
3202;DHT22;34843;48.744;8.958;2023-08-30T01:02:04;12.50;99.90
3202;DHT22;34843;48.744;8.958;2023-08-30T01:04:30;12.40;99.90
3202;DHT22;34843;48.744;8.958;2023-08-30T01:06:55;12.40;99.90
3202;DHT22;34843;48.744;8.958;2023-08-30T01:09:21;12.40;99.90
3202;DHT22;34843;48.744;8.958;2023-08-30T01:14:40;12.30;99.90
3202;DHT22;34843;48.744;8.958;2023-08-30T01:17:10;12.20;99.90
3202;DHT22;34843;48.744;8.958;2023-08-30T01:19:47;12.10;99.90
3202;DHT22;34843;48.744;8.958;2023-08-30T01:22:25;12.10;99.90
3202;DHT22;34843;48.744;8.958;2023-08-30T01:27:56;12.00;99.90
3202;DHT22;34843;48.744;8.958;2023-08-30T01:30:22;11.90;99.90
3202;DHT22;34843;48.744;8.958;2023-08-30T01:32:50;11.90;99.90
3202;DHT22;34843;48.744;8.958;2023-08-30T01:35:15;11.90;99.90
3202;DHT22;34843;48.744;8.958;2023-08-30T01:37:45;11.80;99.90
3202;DHT22;34843;48.744;8.958;2023-08-30T01:40:11;11.80;99.90
3202;DHT22;34843;48.744;8.958;2023-08-30T01:42:38;11.70;99.90
3202;DHT22;34843;48.744;8.958;2023-08-30T01:45:06;11.70;99.90
3202;DHT22;34843;48.744;8.958;2023-08-30T01:47:33;11.60;99.90
3202;DHT22;34843;48.744;8.958;2023-08-30T01:50:00;11.60;99.90
3202;DHT22;34843;48.744;8.958;2023-08-30T01:52:26;11.50;99.90
3202;DHT22;34843;48.744;8.958;2023-08-30T01:54:52;11.40;99.90
3202;DHT22;34843;48.744;8.958;2023-08-30T01:57:19;11.40;99.90
3202;DHT22;34843;48.744;8.958;2023-08-30T01:59:44;11.30;99.90
3202;DHT22;34843;48.744;8.958;2023-08-30T02:02:10;11.30;99.90
3202;DHT22;34843;48.744;8.958;2023-08-30T02:04:35;11.30;99.90
3202;DHT22;34843;48.744;8.958;2023-08-30T02:07:08;11.30;99.90
3202;DHT22;34843;48.744;8.958;2023-08-30T02:09:42;11.30;99.90
3202;DHT22;34843;48.744;8.958;2023-08-30T02:12:15;11.20;99.90
3202;DHT22;34843;48.744;8.958;2023-08-30T02:14:47;11.10;99.90
3202;DHT22;34843;48.744;8.958;2023-08-30T02:17:14;11.10;99.90
3202;DHT22;34843;48.744;8.958;2023-08-30T02:19:44;11.20;99.90
3202;DHT22;34843;48.744;8.958;2023-08-30T02:22:10;11.10;99.90
3202;DHT22;34843;48.744;8.958;2023-08-30T02:24:35;11.10;99.90
3202;DHT22;34843;48.744;8.958;2023-08-30T02:27:01;11.10;99.90
3202;DHT22;34843;48.744;8.958;2023-08-30T02:29:27;11.00;99.90
3202;DHT22;34843;48.744;8.958;2023-08-30T02:31:52;11.00;99.90
3202;DHT22;34843;48.744;8.958;2023-08-30T02:34:18;11.00;99.90
3202;DHT22;34843;48.744;8.958;2023-08-30T02:36:43;11.00;99.90
3202;DHT22;34843;48.744;8.958;2023-08-30T02:39:09;10.90;99.90
3202;DHT22;34843;48.744;8.958;2023-08-30T02:41:35;10.90;99.90
3202;DHT22;34843;48.744;8.958;2023-08-30T02:44:00;10.90;99.90
3202;DHT22;34843;48.744;8.958;2023-08-30T02:46:26;10.90;99.90
3202;DHT22;34843;48.744;8.958;2023-08-30T02:48:51;10.90;99.90
3202;DHT22;34843;48.744;8.958;2023-08-30T02:51:17;10.80;99.90
3202;DHT22;34843;48.744;8.958;2023-08-30T02:53:42;10.80;99.90
3202;DHT22;34843;48.744;8.958;2023-08-30T02:56:08;10.80;99.90
3202;DHT22;34843;48.744;8.958;2023-08-30T02:58:33;10.80;99.90
3202;DHT22;34843;48.744;8.958;2023-08-30T03:01:00;10.80;99.90
3202;DHT22;34843;48.744;8.958;2023-08-30T03:03:25;10.70;99.90
3202;DHT22;34843;48.744;8.958;2023-08-30T03:05:51;10.70;99.90
3202;DHT22;34843;48.744;8.958;2023-08-30T03:08:16;10.70;99.90
3202;DHT22;34843;48.744;8.958;2023-08-30T03:10:42;10.70;99.90
3202;DHT22;34843;48.744;8.958;2023-08-30T03:13:07;10.80;99.90
3202;DHT22;34843;48.744;8.958;2023-08-30T03:15:33;10.80;99.90
3202;DHT22;34843;48.744;8.958;2023-08-30T03:18:00;10.90;99.90
3202;DHT22;34843;48.744;8.958;2023-08-30T03:20:25;10.90;99.90
3202;DHT22;34843;48.744;8.958;2023-08-30T03:22:55;11.00;99.90
3202;DHT22;34843;48.744;8.958;2023-08-30T03:25:21;11.00;99.90
3202;DHT22;34843;48.744;8.958;2023-08-30T03:27:46;11.00;99.90
3202;DHT22;34843;48.744;8.958;2023-08-30T03:30:12;11.10;99.90
3202;DHT22;34843;48.744;8.958;2023-08-30T03:32:38;11.10;99.90
3202;DHT22;34843;48.744;8.958;2023-08-30T03:35:04;11.10;99.90
3202;DHT22;34843;48.744;8.958;2023-08-30T03:37:29;11.20;99.90
3202;DHT22;34843;48.744;8.958;2023-08-30T03:39:55;11.20;99.90
3202;DHT22;34843;48.744;8.958;2023-08-30T03:42:20;11.30;99.90
3202;DHT22;34843;48.744;8.958;2023-08-30T03:44:46;11.40;99.90
3202;DHT22;34843;48.744;8.958;2023-08-30T03:47:11;11.40;99.90
3202;DHT22;34843;48.744;8.958;2023-08-30T03:49:37;11.40;99.90
3202;DHT22;34843;48.744;8.958;2023-08-30T03:52:02;11.40;99.90
3202;DHT22;34843;48.744;8.958;2023-08-30T03:54:28;11.40;99.90
3202;DHT22;34843;48.744;8.958;2023-08-30T03:56:54;11.50;99.90
3202;DHT22;34843;48.744;8.958;2023-08-30T03:59:19;11.60;99.90
3202;DHT22;34843;48.744;8.958;2023-08-30T04:01:45;11.60;99.90
3202;DHT22;34843;48.744;8.958;2023-08-30T04:04:10;11.60;99.90
3202;DHT22;34843;48.744;8.958;2023-08-30T04:06:36;11.70;99.90
3202;DHT22;34843;48.744;8.958;2023-08-30T04:09:01;11.60;99.90
3202;DHT22;34843;48.744;8.958;2023-08-30T04:11:27;11.50;99.90
3202;DHT22;34843;48.744;8.958;2023-08-30T04:13:52;11.50;99.90
3202;DHT22;34843;48.744;8.958;2023-08-30T04:16:18;11.60;99.90
3202;DHT22;34843;48.744;8.958;2023-08-30T04:18:43;11.50;99.90
3202;DHT22;34843;48.744;8.958;2023-08-30T04:21:09;11.60;99.90
3202;DHT22;34843;48.744;8.958;2023-08-30T04:23:35;11.50;99.90
3202;DHT22;34843;48.744;8.958;2023-08-30T04:26:01;11.50;99.90
3202;DHT22;34843;48.744;8.958;2023-08-30T04:28:26;11.50;99.90
3202;DHT22;34843;48.744;8.958;2023-08-30T04:30:56;11.60;99.90
3202;DHT22;34843;48.744;8.958;2023-08-30T04:33:22;11.60;99.90
3202;DHT22;34843;48.744;8.958;2023-08-30T04:35:52;11.60;99.90
3202;DHT22;34843;48.744;8.958;2023-08-30T04:38:18;11.70;99.90
3202;DHT22;34843;48.744;8.958;2023-08-30T04:40:43;11.60;99.90
3202;DHT22;34843;48.744;8.958;2023-08-30T04:43:09;11.60;99.90
3202;DHT22;34843;48.744;8.958;2023-08-30T04:45:35;11.60;99.90
3202;DHT22;34843;48.744;8.958;2023-08-30T04:48:00;11.60;99.90
3202;DHT22;34843;48.744;8.958;2023-08-30T04:50:26;11.60;99.90
3202;DHT22;34843;48.744;8.958;2023-08-30T04:52:51;11.60;99.90
3202;DHT22;34843;48.744;8.958;2023-08-30T04:55:17;11.70;99.90
3202;DHT22;34843;48.744;8.958;2023-08-30T04:57:43;11.70;99.90
3202;DHT22;34843;48.744;8.958;2023-08-30T05:00:11;11.70;99.90
3202;DHT22;34843;48.744;8.958;2023-08-30T05:02:37;11.80;99.90
3202;DHT22;34843;48.744;8.958;2023-08-30T05:05:03;11.90;99.90
3202;DHT22;34843;48.744;8.958;2023-08-30T05:07:29;11.90;99.90
3202;DHT22;34843;48.744;8.958;2023-08-30T05:09:54;12.00;99.90
3202;DHT22;34843;48.744;8.958;2023-08-30T05:12:20;12.10;99.90
3202;DHT22;34843;48.744;8.958;2023-08-30T05:14:45;12.10;99.90
3202;DHT22;34843;48.744;8.958;2023-08-30T05:17:11;12.10;99.90
3202;DHT22;34843;48.744;8.958;2023-08-30T05:19:37;12.20;99.90
3202;DHT22;34843;48.744;8.958;2023-08-30T05:22:02;12.30;99.90
3202;DHT22;34843;48.744;8.958;2023-08-30T05:24:29;12.30;99.90
3202;DHT22;34843;48.744;8.958;2023-08-30T05:26:54;12.30;99.90
3202;DHT22;34843;48.744;8.958;2023-08-30T05:29:20;12.20;99.90
3202;DHT22;34843;48.744;8.958;2023-08-30T05:31:45;12.20;99.90
3202;DHT22;34843;48.744;8.958;2023-08-30T05:34:11;12.20;99.90
3202;DHT22;34843;48.744;8.958;2023-08-30T05:36:36;12.20;99.90
3202;DHT22;34843;48.744;8.958;2023-08-30T05:39:02;12.20;99.90
3202;DHT22;34843;48.744;8.958;2023-08-30T05:41:29;12.20;99.90
3202;DHT22;34843;48.744;8.958;2023-08-30T05:43:55;12.30;99.90
3202;DHT22;34843;48.744;8.958;2023-08-30T05:46:20;12.40;99.90
3202;DHT22;34843;48.744;8.958;2023-08-30T05:48:46;12.40;99.90
3202;DHT22;34843;48.744;8.958;2023-08-30T05:51:11;12.40;99.90
3202;DHT22;34843;48.744;8.958;2023-08-30T05:53:37;12.40;99.90
3202;DHT22;34843;48.744;8.958;2023-08-30T05:56:03;12.40;99.90
3202;DHT22;34843;48.744;8.958;2023-08-30T05:58:29;12.50;99.90
3202;DHT22;34843;48.744;8.958;2023-08-30T06:00:56;12.50;99.90
3202;DHT22;34843;48.744;8.958;2023-08-30T06:03:21;12.60;99.90
3202;DHT22;34843;48.744;8.958;2023-08-30T06:05:47;12.60;99.90
3202;DHT22;34843;48.744;8.958;2023-08-30T06:08:14;12.70;99.90
3202;DHT22;34843;48.744;8.958;2023-08-30T06:10:39;12.90;99.90
3202;DHT22;34843;48.744;8.958;2023-08-30T06:13:05;13.00;99.90
3202;DHT22;34843;48.744;8.958;2023-08-30T06:15:30;13.10;99.90
3202;DHT22;34843;48.744;8.958;2023-08-30T06:17:56;13.20;99.90
3202;DHT22;34843;48.744;8.958;2023-08-30T06:20:21;13.30;99.90
3202;DHT22;34843;48.744;8.958;2023-08-30T06:22:47;13.40;99.90
3202;DHT22;34843;48.744;8.958;2023-08-30T06:25:13;13.40;99.90
3202;DHT22;34843;48.744;8.958;2023-08-30T06:27:41;13.30;99.90
3202;DHT22;34843;48.744;8.958;2023-08-30T06:30:08;13.10;99.90
3202;DHT22;34843;48.744;8.958;2023-08-30T06:32:33;13.00;99.90
3202;DHT22;34843;48.744;8.958;2023-08-30T06:34:59;13.00;99.90
3202;DHT22;34843;48.744;8.958;2023-08-30T06:37:24;13.00;99.90
3202;DHT22;34843;48.744;8.958;2023-08-30T06:39:50;13.00;99.90
3202;DHT22;34843;48.744;8.958;2023-08-30T06:42:16;13.00;99.90
3202;DHT22;34843;48.744;8.958;2023-08-30T06:44:41;13.10;99.90
3202;DHT22;34843;48.744;8.958;2023-08-30T06:47:07;13.20;99.90
3202;DHT22;34843;48.744;8.958;2023-08-30T06:49:32;13.20;99.90
3202;DHT22;34843;48.744;8.958;2023-08-30T06:51:59;13.40;99.90
3202;DHT22;34843;48.744;8.958;2023-08-30T06:54:28;13.40;99.90
3202;DHT22;34843;48.744;8.958;2023-08-30T06:56:59;13.50;99.90
3202;DHT22;34843;48.744;8.958;2023-08-30T06:59:25;13.50;99.90
3202;DHT22;34843;48.744;8.958;2023-08-30T07:01:51;13.40;99.90
3202;DHT22;34843;48.744;8.958;2023-08-30T07:04:17;13.40;99.90
3202;DHT22;34843;48.744;8.958;2023-08-30T07:06:42;13.50;99.90
3202;DHT22;34843;48.744;8.958;2023-08-30T07:09:08;13.50;99.90
3202;DHT22;34843;48.744;8.958;2023-08-30T07:11:34;13.50;99.90
3202;DHT22;34843;48.744;8.958;2023-08-30T07:13:59;13.70;99.90
3202;DHT22;34843;48.744;8.958;2023-08-30T07:16:25;13.90;99.90
3202;DHT22;34843;48.744;8.958;2023-08-30T07:18:51;14.00;99.90
3202;DHT22;34843;48.744;8.958;2023-08-30T07:21:16;14.20;99.90
3202;DHT22;34843;48.744;8.958;2023-08-30T07:23:42;14.30;99.90
3202;DHT22;34843;48.744;8.958;2023-08-30T07:26:07;14.40;99.90
3202;DHT22;34843;48.744;8.958;2023-08-30T07:28:33;14.50;99.90
3202;DHT22;34843;48.744;8.958;2023-08-30T07:31:04;14.60;99.90
3202;DHT22;34843;48.744;8.958;2023-08-30T07:33:30;16.10;99.90
3202;DHT22;34843;48.744;8.958;2023-08-30T07:35:56;14.70;99.90
3202;DHT22;34843;48.744;8.958;2023-08-30T07:38:21;14.50;99.90
3202;DHT22;34843;48.744;8.958;2023-08-30T07:40:47;14.70;99.90
3202;DHT22;34843;48.744;8.958;2023-08-30T07:43:13;14.80;99.90
3202;DHT22;34843;48.744;8.958;2023-08-30T07:45:38;14.90;99.90
3202;DHT22;34843;48.744;8.958;2023-08-30T07:48:04;15.10;99.90
3202;DHT22;34843;48.744;8.958;2023-08-30T07:50:29;15.00;99.90
3202;DHT22;34843;48.744;8.958;2023-08-30T07:52:55;15.40;99.90
3202;DHT22;34843;48.744;8.958;2023-08-30T07:55:20;15.40;99.90
3202;DHT22;34843;48.744;8.958;2023-08-30T07:57:46;15.70;99.90
3202;DHT22;34843;48.744;8.958;2023-08-30T08:00:12;16.00;99.90
3202;DHT22;34843;48.744;8.958;2023-08-30T08:02:39;16.30;99.90
3202;DHT22;34843;48.744;8.958;2023-08-30T08:05:04;16.30;99.90
3202;DHT22;34843;48.744;8.958;2023-08-30T08:07:30;16.10;99.90
3202;DHT22;34843;48.744;8.958;2023-08-30T08:09:56;15.70;99.90
3202;DHT22;34843;48.744;8.958;2023-08-30T08:12:22;15.60;99.90
3202;DHT22;34843;48.744;8.958;2023-08-30T08:14:47;15.70;99.90
3202;DHT22;34843;48.744;8.958;2023-08-30T08:17:13;15.70;99.90
3202;DHT22;34843;48.744;8.958;2023-08-30T08:19:38;16.00;99.90
3202;DHT22;34843;48.744;8.958;2023-08-30T08:22:05;16.20;99.90
3202;DHT22;34843;48.744;8.958;2023-08-30T08:24:31;16.60;99.90
3202;DHT22;34843;48.744;8.958;2023-08-30T08:26:57;16.80;99.90
3202;DHT22;34843;48.744;8.958;2023-08-30T08:29:22;17.10;99.90
3202;DHT22;34843;48.744;8.958;2023-08-30T08:31:48;18.10;99.90
3202;DHT22;34843;48.744;8.958;2023-08-30T08:34:14;17.50;99.90
3202;DHT22;34843;48.744;8.958;2023-08-30T08:36:40;17.70;99.90
3202;DHT22;34843;48.744;8.958;2023-08-30T08:39:07;17.50;99.90
3202;DHT22;34843;48.744;8.958;2023-08-30T08:41:42;17.40;99.90
3202;DHT22;34843;48.744;8.958;2023-08-30T08:44:09;17.20;99.90
3202;DHT22;34843;48.744;8.958;2023-08-30T08:46:36;17.40;99.90
3202;DHT22;34843;48.744;8.958;2023-08-30T08:49:08;17.70;99.90
3202;DHT22;34843;48.744;8.958;2023-08-30T08:51:36;18.00;99.90
3202;DHT22;34843;48.744;8.958;2023-08-30T08:54:03;18.30;99.90
3202;DHT22;34843;48.744;8.958;2023-08-30T08:56:32;18.50;99.90
3202;DHT22;34843;48.744;8.958;2023-08-30T08:58:59;18.80;99.90
3202;DHT22;34843;48.744;8.958;2023-08-30T09:01:25;18.90;99.90
3202;DHT22;34843;48.744;8.958;2023-08-30T09:03:51;19.00;99.90
3202;DHT22;34843;48.744;8.958;2023-08-30T09:06:18;19.30;99.90
3202;DHT22;34843;48.744;8.958;2023-08-30T09:08:43;19.60;99.90
3202;DHT22;34843;48.744;8.958;2023-08-30T09:11:09;19.80;99.90
3202;DHT22;34843;48.744;8.958;2023-08-30T09:13:35;20.00;99.90
3202;DHT22;34843;48.744;8.958;2023-08-30T09:16:00;19.80;99.90
3202;DHT22;34843;48.744;8.958;2023-08-30T09:18:27;19.80;99.90
3202;DHT22;34843;48.744;8.958;2023-08-30T09:21:05;19.60;99.90
3202;DHT22;34843;48.744;8.958;2023-08-30T09:23:30;19.10;99.90
3202;DHT22;34843;48.744;8.958;2023-08-30T09:25:56;19.50;99.90
3202;DHT22;34843;48.744;8.958;2023-08-30T09:28:21;19.90;99.90
3202;DHT22;34843;48.744;8.958;2023-08-30T09:30:51;20.20;99.90
3202;DHT22;34843;48.744;8.958;2023-08-30T09:33:21;20.30;99.90
3202;DHT22;34843;48.744;8.958;2023-08-30T09:35:47;20.10;99.90
3202;DHT22;34843;48.744;8.958;2023-08-30T09:38:17;19.70;99.90
3202;DHT22;34843;48.744;8.958;2023-08-30T09:40:43;19.50;99.90
3202;DHT22;34843;48.744;8.958;2023-08-30T09:43:10;19.60;99.90
3202;DHT22;34843;48.744;8.958;2023-08-30T09:45:35;20.00;99.90
3202;DHT22;34843;48.744;8.958;2023-08-30T09:48:01;20.30;99.90
3202;DHT22;34843;48.744;8.958;2023-08-30T09:50:29;20.50;99.90
3202;DHT22;34843;48.744;8.958;2023-08-30T09:52:58;20.40;99.90
3202;DHT22;34843;48.744;8.958;2023-08-30T09:55:24;20.40;99.90
3202;DHT22;34843;48.744;8.958;2023-08-30T09:57:51;20.00;99.90
3202;DHT22;34843;48.744;8.958;2023-08-30T10:00:16;19.60;99.90
3202;DHT22;34843;48.744;8.958;2023-08-30T10:02:43;19.50;99.90
3202;DHT22;34843;48.744;8.958;2023-08-30T10:05:10;19.70;99.90
3202;DHT22;34843;48.744;8.958;2023-08-30T10:07:41;19.80;99.90
3202;DHT22;34843;48.744;8.958;2023-08-30T10:10:07;20.00;99.90
3202;DHT22;34843;48.744;8.958;2023-08-30T10:12:32;20.40;99.90
3202;DHT22;34843;48.744;8.958;2023-08-30T10:14:58;20.40;99.90
3202;DHT22;34843;48.744;8.958;2023-08-30T10:17:27;20.60;99.90
3202;DHT22;34843;48.744;8.958;2023-08-30T10:19:55;20.80;99.90
3202;DHT22;34843;48.744;8.958;2023-08-30T10:22:22;21.00;99.90
3202;DHT22;34843;48.744;8.958;2023-08-30T10:25:04;21.20;99.90
3202;DHT22;34843;48.744;8.958;2023-08-30T10:27:31;21.30;99.90
3202;DHT22;34843;48.744;8.958;2023-08-30T10:30:00;21.00;99.90
3202;DHT22;34843;48.744;8.958;2023-08-30T10:32:26;20.60;99.90
3202;DHT22;34843;48.744;8.958;2023-08-30T10:34:52;20.70;99.90
3202;DHT22;34843;48.744;8.958;2023-08-30T10:37:26;20.40;99.90
3202;DHT22;34843;48.744;8.958;2023-08-30T10:39:52;20.70;99.90
3202;DHT22;34843;48.744;8.958;2023-08-30T10:42:23;21.10;99.90
3202;DHT22;34843;48.744;8.958;2023-08-30T10:44:49;21.40;99.90
3202;DHT22;34843;48.744;8.958;2023-08-30T10:47:22;21.60;99.90
3202;DHT22;34843;48.744;8.958;2023-08-30T10:49:49;21.90;99.90
3202;DHT22;34843;48.744;8.958;2023-08-30T10:52:15;22.20;99.90
3202;DHT22;34843;48.744;8.958;2023-08-30T10:54:40;22.10;99.90
3202;DHT22;34843;48.744;8.958;2023-08-30T10:57:13;22.10;99.90
3202;DHT22;34843;48.744;8.958;2023-08-30T10:59:38;22.50;99.90
3202;DHT22;34843;48.744;8.958;2023-08-30T11:02:04;22.70;99.90
3202;DHT22;34843;48.744;8.958;2023-08-30T11:04:30;22.90;99.90
3202;DHT22;34843;48.744;8.958;2023-08-30T11:06:56;23.10;99.90
3202;DHT22;34843;48.744;8.958;2023-08-30T11:09:23;23.40;99.90
3202;DHT22;34843;48.744;8.958;2023-08-30T11:11:50;23.50;99.90
3202;DHT22;34843;48.744;8.958;2023-08-30T11:14:17;22.70;99.90
3202;DHT22;34843;48.744;8.958;2023-08-30T11:16:43;21.20;99.90
3202;DHT22;34843;48.744;8.958;2023-08-30T11:19:10;20.00;99.90
3202;DHT22;34843;48.744;8.958;2023-08-30T11:21:38;19.00;99.90
3202;DHT22;34843;48.744;8.958;2023-08-30T11:24:05;18.10;99.90
3202;DHT22;34843;48.744;8.958;2023-08-30T11:26:31;17.30;99.90
3202;DHT22;34843;48.744;8.958;2023-08-30T11:28:56;16.80;99.90
3202;DHT22;34843;48.744;8.958;2023-08-30T11:31:23;16.40;99.90
3202;DHT22;34843;48.744;8.958;2023-08-30T11:33:53;16.10;99.90
3202;DHT22;34843;48.744;8.958;2023-08-30T11:36:21;16.00;99.90
3202;DHT22;34843;48.744;8.958;2023-08-30T11:38:48;15.80;99.90
3202;DHT22;34843;48.744;8.958;2023-08-30T11:41:13;15.60;99.90
3202;DHT22;34843;48.744;8.958;2023-08-30T11:43:39;15.50;99.90
3202;DHT22;34843;48.744;8.958;2023-08-30T11:46:05;15.40;99.90
3202;DHT22;34843;48.744;8.958;2023-08-30T11:48:31;15.30;99.90
3202;DHT22;34843;48.744;8.958;2023-08-30T11:50:58;15.20;99.90
3202;DHT22;34843;48.744;8.958;2023-08-30T11:53:24;15.20;99.90
3202;DHT22;34843;48.744;8.958;2023-08-30T11:55:50;15.20;99.90
3202;DHT22;34843;48.744;8.958;2023-08-30T11:58:18;15.20;99.90
3202;DHT22;34843;48.744;8.958;2023-08-30T12:00:43;15.20;99.90
3202;DHT22;34843;48.744;8.958;2023-08-30T12:03:13;15.10;99.90
3202;DHT22;34843;48.744;8.958;2023-08-30T12:05:47;15.20;99.90
3202;DHT22;34843;48.744;8.958;2023-08-30T12:08:26;15.20;99.90
3202;DHT22;34843;48.744;8.958;2023-08-30T12:10:52;15.20;99.90
3202;DHT22;34843;48.744;8.958;2023-08-30T12:13:25;15.30;99.90
3202;DHT22;34843;48.744;8.958;2023-08-30T12:15:52;15.50;99.90
3202;DHT22;34843;48.744;8.958;2023-08-30T12:18:23;15.90;99.90
3202;DHT22;34843;48.744;8.958;2023-08-30T12:23:27;16.70;99.90
3202;DHT22;34843;48.744;8.958;2023-08-30T12:26:07;17.10;99.90
3202;DHT22;34843;48.744;8.958;2023-08-30T12:28:34;17.20;99.90
3202;DHT22;34843;48.744;8.958;2023-08-30T12:31:00;17.60;99.90
3202;DHT22;34843;48.744;8.958;2023-08-30T12:33:26;17.80;99.90
3202;DHT22;34843;48.744;8.958;2023-08-30T12:35:53;18.00;99.90
3202;DHT22;34843;48.744;8.958;2023-08-30T12:38:18;17.90;99.90
3202;DHT22;34843;48.744;8.958;2023-08-30T12:40:45;17.80;99.90
3202;DHT22;34843;48.744;8.958;2023-08-30T12:43:11;18.00;99.90
3202;DHT22;34843;48.744;8.958;2023-08-30T12:45:41;18.60;99.90
3202;DHT22;34843;48.744;8.958;2023-08-30T12:48:08;18.90;99.90
3202;DHT22;34843;48.744;8.958;2023-08-30T12:50:35;19.10;99.90
3202;DHT22;34843;48.744;8.958;2023-08-30T12:53:02;19.60;99.90
3202;DHT22;34843;48.744;8.958;2023-08-30T12:55:28;19.70;99.90
3202;DHT22;34843;48.744;8.958;2023-08-30T12:57:54;19.70;99.90
3202;DHT22;34843;48.744;8.958;2023-08-30T13:00:19;19.80;99.90
3202;DHT22;34843;48.744;8.958;2023-08-30T13:02:45;19.70;99.90
3202;DHT22;34843;48.744;8.958;2023-08-30T13:05:10;19.50;99.90
3202;DHT22;34843;48.744;8.958;2023-08-30T13:07:36;19.40;99.90
3202;DHT22;34843;48.744;8.958;2023-08-30T13:10:02;19.50;99.90
3202;DHT22;34843;48.744;8.958;2023-08-30T13:12:28;19.70;99.90
3202;DHT22;34843;48.744;8.958;2023-08-30T13:14:53;20.00;99.90
3202;DHT22;34843;48.744;8.958;2023-08-30T13:17:19;20.10;99.90
3202;DHT22;34843;48.744;8.958;2023-08-30T13:19:44;20.10;99.90
3202;DHT22;34843;48.744;8.958;2023-08-30T13:22:10;20.20;99.90
3202;DHT22;34843;48.744;8.958;2023-08-30T13:24:36;20.20;99.90
3202;DHT22;34843;48.744;8.958;2023-08-30T13:27:02;20.10;99.90
3202;DHT22;34843;48.744;8.958;2023-08-30T13:29:28;20.00;99.90
3202;DHT22;34843;48.744;8.958;2023-08-30T13:31:54;19.90;99.90
3202;DHT22;34843;48.744;8.958;2023-08-30T13:34:19;19.80;99.90
3202;DHT22;34843;48.744;8.958;2023-08-30T13:36:45;19.90;99.90
3202;DHT22;34843;48.744;8.958;2023-08-30T13:39:10;19.80;99.90
3202;DHT22;34843;48.744;8.958;2023-08-30T13:41:36;19.80;99.90
3202;DHT22;34843;48.744;8.958;2023-08-30T13:44:02;19.90;99.90
3202;DHT22;34843;48.744;8.958;2023-08-30T13:46:31;19.90;99.90
3202;DHT22;34843;48.744;8.958;2023-08-30T13:48:57;19.90;99.90
3202;DHT22;34843;48.744;8.958;2023-08-30T13:51:23;20.10;99.90
3202;DHT22;34843;48.744;8.958;2023-08-30T13:53:50;20.30;99.90
3202;DHT22;34843;48.744;8.958;2023-08-30T13:56:16;20.30;99.90
3202;DHT22;34843;48.744;8.958;2023-08-30T13:58:41;20.30;99.90
3202;DHT22;34843;48.744;8.958;2023-08-30T14:01:07;20.30;99.90
3202;DHT22;34843;48.744;8.958;2023-08-30T14:03:33;20.10;99.90
3202;DHT22;34843;48.744;8.958;2023-08-30T14:05:58;20.00;99.90
3202;DHT22;34843;48.744;8.958;2023-08-30T14:08:24;19.70;99.90
3202;DHT22;34843;48.744;8.958;2023-08-30T14:10:49;19.60;99.90
3202;DHT22;34843;48.744;8.958;2023-08-30T14:13:15;19.60;99.90
3202;DHT22;34843;48.744;8.958;2023-08-30T14:15:41;19.50;99.90
3202;DHT22;34843;48.744;8.958;2023-08-30T14:18:09;19.40;99.90
3202;DHT22;34843;48.744;8.958;2023-08-30T14:20:35;19.40;99.90
3202;DHT22;34843;48.744;8.958;2023-08-30T14:23:00;19.40;99.90
3202;DHT22;34843;48.744;8.958;2023-08-30T14:25:26;19.20;99.90
3202;DHT22;34843;48.744;8.958;2023-08-30T14:27:52;19.00;99.90
3202;DHT22;34843;48.744;8.958;2023-08-30T14:30:17;18.90;99.90
3202;DHT22;34843;48.744;8.958;2023-08-30T14:32:43;18.80;99.90
3202;DHT22;34843;48.744;8.958;2023-08-30T14:35:09;18.70;99.90
3202;DHT22;34843;48.744;8.958;2023-08-30T14:37:34;18.60;99.90
3202;DHT22;34843;48.744;8.958;2023-08-30T14:40:02;18.60;99.90
3202;DHT22;34843;48.744;8.958;2023-08-30T14:42:29;18.60;99.90
3202;DHT22;34843;48.744;8.958;2023-08-30T14:44:55;18.60;99.90
3202;DHT22;34843;48.744;8.958;2023-08-30T14:47:21;18.70;99.90
3202;DHT22;34843;48.744;8.958;2023-08-30T14:49:47;18.70;99.90
3202;DHT22;34843;48.744;8.958;2023-08-30T14:52:13;18.70;99.90
3202;DHT22;34843;48.744;8.958;2023-08-30T14:54:39;18.80;99.90
3202;DHT22;34843;48.744;8.958;2023-08-30T14:57:04;18.80;99.90
3202;DHT22;34843;48.744;8.958;2023-08-30T14:59:30;18.90;99.90
3202;DHT22;34843;48.744;8.958;2023-08-30T15:01:55;19.00;99.90
3202;DHT22;34843;48.744;8.958;2023-08-30T15:04:21;19.10;99.90
3202;DHT22;34843;48.744;8.958;2023-08-30T15:06:46;19.10;99.90
3202;DHT22;34843;48.744;8.958;2023-08-30T15:09:15;19.20;99.90
3202;DHT22;34843;48.744;8.958;2023-08-30T15:11:44;19.30;99.90
3202;DHT22;34843;48.744;8.958;2023-08-30T15:14:10;19.50;99.90
3202;DHT22;34843;48.744;8.958;2023-08-30T15:16:36;19.50;99.90
3202;DHT22;34843;48.744;8.958;2023-08-30T15:19:02;19.50;99.90
3202;DHT22;34843;48.744;8.958;2023-08-30T15:21:28;19.50;99.90
3202;DHT22;34843;48.744;8.958;2023-08-30T15:23:53;19.50;99.90
3202;DHT22;34843;48.744;8.958;2023-08-30T15:26:19;19.50;99.90
3202;DHT22;34843;48.744;8.958;2023-08-30T15:28:47;19.60;99.90
3202;DHT22;34843;48.744;8.958;2023-08-30T15:31:13;19.70;99.90
3202;DHT22;34843;48.744;8.958;2023-08-30T15:33:39;19.80;99.90
3202;DHT22;34843;48.744;8.958;2023-08-30T15:36:04;19.80;99.90
3202;DHT22;34843;48.744;8.958;2023-08-30T15:38:30;19.80;99.90
3202;DHT22;34843;48.744;8.958;2023-08-30T15:40:56;19.80;99.90
3202;DHT22;34843;48.744;8.958;2023-08-30T15:43:22;19.60;99.90
3202;DHT22;34843;48.744;8.958;2023-08-30T15:45:48;19.70;99.90
3202;DHT22;34843;48.744;8.958;2023-08-30T15:48:14;19.80;99.90